Time;durP1;ratioP1;P1;durP2;ratioP2;P2;SDS_P1;SDS_P2;PMS_P1;PMS_P2;Temp;Humidity;BMP_temperature;BMP_pressure;BME280_temperature;BME280_humidity;BME280_pressure;Samples;Min_cycle;Max_cycle;Signal;HPM_P1;HPM_P2
2022/12/10 00:02:18;;;;;;;10.77;6.87;;;5.80;70.50;;;;;;2344080;53;20972;-74
2022/12/10 00:04:50;;;;;;;15.20;8.02;;;5.80;70.50;;;;;;2336859;54;21307;-72
2022/12/10 00:07:17;;;;;;;17.00;8.43;;;5.80;70.40;;;;;;2336908;54;20939;-73
2022/12/10 00:09:43;;;;;;;15.40;7.82;;;5.80;70.50;;;;;;2338090;54;21520;-73
2022/12/10 00:12:09;;;;;;;15.93;9.13;;;5.80;70.50;;;;;;2337709;54;20955;-73
2022/12/10 00:14:45;;;;;;;14.57;7.65;;;5.80;70.50;;;;;;2338094;54;20896;-72
2022/12/10 00:17:12;;;;;;;13.82;8.02;;;5.80;70.40;;;;;;2338342;54;20987;-75
2022/12/10 00:19:39;;;;;;;13.02;7.75;;;5.80;70.60;;;;;;2338181;54;20935;-73
2022/12/10 00:22:06;;;;;;;13.43;8.13;;;5.80;70.60;;;;;;2347474;53;20993;-74
2022/12/10 00:24:35;;;;;;;15.88;8.75;;;5.80;70.60;;;;;;2337642;53;20946;-72
2022/12/10 00:27:02;;;;;;;16.35;9.20;;;5.80;70.60;;;;;;2337006;54;20990;-74
2022/12/10 00:29:28;;;;;;;12.00;7.32;;;5.80;70.70;;;;;;2343424;53;20997;-74
2022/12/10 00:31:55;;;;;;;15.00;7.90;;;5.80;70.70;;;;;;2345313;54;20907;-73
2022/12/10 00:34:22;;;;;;;13.48;8.13;;;5.80;70.60;;;;;;2337568;54;20915;-75
2022/12/10 00:36:49;;;;;;;14.25;7.75;;;5.80;70.50;;;;;;2337874;54;21251;-72
2022/12/10 00:39:26;;;;;;;11.88;6.95;;;5.80;70.50;;;;;;2337790;54;21006;-74
2022/12/10 00:41:52;;;;;;;12.98;7.47;;;5.80;70.20;;;;;;2443415;53;21703;-75
2022/12/10 00:44:43;;;;;;;17.40;8.45;;;5.80;70.40;;;;;;2337004;54;21514;-73
2022/12/10 00:47:09;;;;;;;11.98;7.30;;;5.80;70.10;;;;;;2583249;53;20904;-73
2022/12/10 00:49:36;;;;;;;14.40;7.60;;;5.80;70.50;;;;;;2338560;54;21682;-74
2022/12/10 00:52:02;;;;;;;13.70;7.15;;;5.80;70.50;;;;;;2344070;53;21016;-73
2022/12/10 00:54:38;;;;;;;15.32;7.30;;;5.80;70.50;;;;;;2343455;53;21048;-75
2022/12/10 00:57:04;;;;;;;11.52;7.53;;;5.80;70.40;;;;;;2334094;53;20991;-74
2022/12/10 00:59:31;;;;;;;11.18;6.40;;;5.80;70.40;;;;;;2338663;54;20955;-73
2022/12/10 01:01:58;;;;;;;15.65;7.80;;;5.70;70.20;;;;;;2491778;53;21764;-72
2022/12/10 01:04:51;;;;;;;16.70;8.02;;;5.80;70.30;;;;;;2338261;54;21467;-74
2022/12/10 01:07:18;;;;;;;14.23;8.20;;;5.70;69.90;;;;;;2586977;52;21041;-74
2022/12/10 01:09:44;;;;;;;14.27;8.57;;;5.70;70.20;;;;;;2336954;54;20973;-72
2022/12/10 01:12:11;;;;;;;13.10;7.53;;;5.70;70.20;;;;;;2338043;54;20911;-73
2022/12/10 01:14:37;;;;;;;12.65;7.22;;;5.70;70.20;;;;;;2337671;54;20935;-75
2022/12/10 01:17:04;;;;;;;13.40;7.35;;;5.70;70.20;;;;;;2337579;54;21322;-73
2022/12/10 01:20:01;;;;;;;12.75;7.65;;;5.70;70.30;;;;;;2344019;54;20923;-74
2022/12/10 01:22:27;;;;;;;13.95;6.65;;;5.70;69.90;;;;;;2499238;53;20972;-73
2022/12/10 01:24:55;;;;;;;11.93;6.60;;;5.70;70.00;;;;;;2337932;54;20974;-72
2022/12/10 01:27:21;;;;;;;12.10;6.57;;;5.70;69.80;;;;;;2338257;54;21380;-73
2022/12/10 01:29:48;;;;;;;14.77;7.57;;;5.60;69.60;;;;;;2583325;53;21640;-74
2022/12/10 01:32:15;;;;;;;13.32;7.07;;;5.60;69.50;;;;;;2583301;53;21007;-73
2022/12/10 01:34:43;;;;;;;13.25;7.32;;;5.60;69.50;;;;;;2337631;54;21725;-74
2022/12/10 01:37:10;;;;;;;14.30;7.18;;;5.60;69.50;;;;;;2334735;54;20903;-75
2022/12/10 01:39:37;;;;;;;13.60;7.78;;;5.50;69.40;;;;;;2476387;53;21035;-73
2022/12/10 01:42:03;;;;;;;13.93;7.50;;;5.50;69.40;;;;;;2337843;54;20975;-74
2022/12/10 01:45:15;;;;;;;13.38;7.80;;;5.50;69.50;;;;;;2491379;53;21008;-74
2022/12/10 01:47:42;;;;;;;16.12;9.05;;;5.40;69.10;;;;;;2339258;53;21591;-72
2022/12/10 01:50:08;;;;;;;17.10;9.73;;;5.40;69.70;;;;;;2583723;52;21060;-74
2022/12/10 01:52:35;;;;;;;16.40;9.70;;;5.40;70.00;;;;;;2347970;53;21370;-73
2022/12/10 01:55:09;;;;;;;18.55;8.88;;;5.40;70.20;;;;;;2369539;53;20918;-73
2022/12/10 01:57:38;;;;;;;15.95;8.90;;;5.40;70.30;;;;;;2529533;53;20903;-74
2022/12/10 02:00:10;;;;;;;15.52;8.57;;;5.40;70.40;;;;;;2470974;53;20959;-74
2022/12/10 02:03:02;;;;;;;18.65;10.05;;;5.40;70.50;;;;;;2341372;54;20979;-73
2022/12/10 02:05:39;;;;;;;18.90;9.53;;;5.40;70.30;;;;;;2585710;52;20985;-73
2022/12/10 02:08:11;;;;;;;15.88;9.55;;;5.50;70.60;;;;;;2343956;53;21895;-73
2022/12/10 02:10:51;;;;;;;17.58;10.05;;;5.50;70.70;;;;;;2530286;53;20883;-74
2022/12/10 02:14:10;;;;;;;16.12;9.32;;;5.50;70.70;;;;;;2337809;54;20931;-74
2022/12/10 02:16:58;;;;;;;20.60;10.10;;;5.50;70.60;;;;;;2583341;53;21760;-73
2022/12/10 02:20:50;;;;;;;17.87;9.82;;;5.50;70.60;;;;;;2337857;54;21447;-73
2022/12/10 02:23:29;;;;;;;17.65;9.57;;;5.60;70.30;;;;;;2582638;53;20908;-74
2022/12/10 02:26:13;;;;;;;15.65;8.55;;;5.60;70.80;;;;;;2338455;54;20951;-75
2022/12/10 02:29:58;;;;;;;16.75;9.15;;;5.60;70.90;;;;;;2423876;53;21471;-73
2022/12/10 02:32:26;;;;;;;17.33;9.85;;;5.60;70.70;;;;;;2337785;54;20986;-73
2022/12/10 02:34:57;;;;;;;20.42;11.12;;;5.60;71.00;;;;;;2508082;53;20963;-73
2022/12/10 02:37:31;;;;;;;16.85;9.02;;;5.60;71.00;;;;;;2337987;54;20923;-72
2022/12/10 02:39:59;;;;;;;15.27;8.73;;;5.60;71.00;;;;;;2351494;53;20915;-75
2022/12/10 02:42:26;;;;;;;13.07;7.12;;;5.60;71.00;;;;;;2340473;53;20905;-73
2022/12/10 02:44:52;;;;;;;14.00;8.00;;;5.70;71.10;;;;;;2583426;53;20939;-74
2022/12/10 02:47:18;;;;;;;13.62;8.25;;;5.70;71.10;;;;;;2337831;54;20911;-73
2022/12/10 02:49:48;;;;;;;15.93;9.55;;;5.70;71.00;;;;;;2584041;53;21776;-75
2022/12/10 02:52:17;;;;;;;14.48;8.15;;;5.70;71.00;;;;;;2438130;53;21003;-72
2022/12/10 02:54:48;;;;;;;15.48;8.23;;;5.70;71.00;;;;;;2574623;53;21911;-72
2022/12/10 02:57:42;;;;;;;12.52;7.32;;;5.70;71.00;;;;;;2337659;54;21733;-73
2022/12/10 03:00:18;;;;;;;13.20;7.62;;;5.70;70.60;;;;;;2583067;53;20912;-75
2022/12/10 03:06:18;;;;;;;11.55;6.90;;;5.70;70.80;;;;;;2476156;53;20915;-74
2022/12/10 03:08:56;;;;;;;11.75;5.93;;;5.80;70.00;;;;;;2583369;53;20963;-74
2022/12/10 03:11:22;;;;;;;12.37;6.78;;;5.80;70.50;;;;;;2583072;53;21401;-75
2022/12/10 03:15:48;;;;;;;12.48;6.80;;;5.70;70.50;;;;;;2519222;53;21413;-72
2022/12/10 03:18:15;;;;;;;15.55;8.13;;;5.70;70.40;;;;;;2338278;54;20906;-72
2022/12/10 03:20:44;;;;;;;13.40;7.22;;;5.70;70.50;;;;;;2347624;53;20927;-75
2022/12/10 03:23:14;;;;;;;11.48;6.97;;;5.80;70.60;;;;;;2337522;54;20987;-75
2022/12/10 03:25:42;;;;;;;13.27;7.30;;;5.70;70.50;;;;;;2510319;54;20948;-74
2022/12/10 03:28:08;;;;;;;12.80;6.95;;;5.70;70.40;;;;;;2369236;54;21020;-75
2022/12/10 03:30:35;;;;;;;13.25;7.47;;;5.70;70.40;;;;;;2441812;53;20911;-72
2022/12/10 03:33:01;;;;;;;14.80;7.60;;;5.70;70.30;;;;;;2343714;53;20956;-74
2022/12/10 03:35:28;;;;;;;11.75;6.55;;;5.70;70.30;;;;;;2338134;54;20948;-73
2022/12/10 03:37:54;;;;;;;12.48;7.55;;;5.70;70.30;;;;;;2331398;54;20939;-73
2022/12/10 03:40:24;;;;;;;14.48;7.93;;;5.70;70.30;;;;;;2474396;53;20999;-74
2022/12/10 03:42:50;;;;;;;14.50;7.95;;;5.60;70.30;;;;;;2398015;53;21926;-72
2022/12/10 03:45:17;;;;;;;13.90;8.00;;;5.60;70.30;;;;;;2583102;53;21636;-73
2022/12/10 03:47:43;;;;;;;12.63;7.65;;;5.60;70.30;;;;;;2338107;54;20974;-74
2022/12/10 03:50:48;;;;;;;13.80;7.15;;;5.60;70.50;;;;;;2338204;54;20955;-74
2022/12/10 03:53:14;;;;;;;14.00;7.25;;;5.70;70.40;;;;;;2337017;54;20957;-74
2022/12/10 03:56:00;;;;;;;13.00;7.22;;;5.60;70.50;;;;;;2491499;53;20980;-73
2022/12/10 03:58:54;;;;;;;14.25;7.65;;;5.60;70.20;;;;;;2338888;54;21419;-71
2022/12/10 04:01:21;;;;;;;14.90;6.80;;;5.60;70.20;;;;;;2584888;52;20980;-73
2022/12/10 04:03:47;;;;;;;15.95;7.75;;;5.60;70.30;;;;;;2339088;53;20891;-75
2022/12/10 04:06:16;;;;;;;13.82;7.62;;;5.60;70.30;;;;;;2530396;53;20947;-73
2022/12/10 04:08:43;;;;;;;16.02;9.40;;;5.60;70.40;;;;;;2336872;54;21309;-74
2022/12/10 04:11:10;;;;;;;16.45;9.02;;;5.60;70.50;;;;;;2486940;53;20916;-75
2022/12/10 04:16:27;;;;;;;14.98;8.60;;;5.60;70.70;;;;;;2505739;52;21778;-72
2022/12/10 04:19:02;;;;;;;14.38;7.75;;;5.60;70.70;;;;;;2337491;54;20975;-73
2022/12/10 04:27:00;;;;;;;17.95;9.00;;;5.70;71.00;;;;;;2470057;52;21076;-73
2022/12/10 04:29:28;;;;;;;14.23;8.40;;;5.70;71.00;;;;;;2338223;54;20892;-73
2022/12/10 04:32:04;;;;;;;15.80;8.10;;;5.70;71.10;;;;;;2361995;53;20949;-73
2022/12/10 04:34:31;;;;;;;15.30;8.77;;;5.70;70.90;;;;;;2338063;54;20940;-74
2022/12/10 04:36:58;;;;;;;15.48;8.48;;;5.70;71.00;;;;;;2385584;53;20923;-73
2022/12/10 04:39:26;;;;;;;12.93;7.22;;;5.70;71.00;;;;;;2337747;54;20986;-73
2022/12/10 04:41:53;;;;;;;15.13;7.90;;;5.80;71.20;;;;;;2560568;52;21008;-74
2022/12/10 04:44:19;;;;;;;16.10;9.13;;;5.80;71.10;;;;;;2344181;54;20911;-73
2022/12/10 04:46:46;;;;;;;16.73;8.23;;;5.80;71.10;;;;;;2429588;53;21017;-73
2022/12/10 04:49:12;;;;;;;17.17;8.90;;;5.80;71.10;;;;;;2337266;54;20947;-74
2022/12/10 04:51:42;;;;;;;16.70;8.85;;;5.80;71.10;;;;;;2339863;53;20963;-75
2022/12/10 04:54:09;;;;;;;18.70;10.40;;;5.80;71.10;;;;;;2480357;53;20953;-72
2022/12/10 04:56:36;;;;;;;16.95;8.55;;;5.80;71.00;;;;;;2340237;53;21019;-72
2022/12/10 04:59:38;;;;;;;15.32;8.38;;;5.90;71.20;;;;;;2337585;54;21700;-73
2022/12/10 05:02:05;;;;;;;16.67;8.93;;;5.90;70.80;;;;;;2583292;53;20982;-73
2022/12/10 05:04:31;;;;;;;14.95;8.10;;;5.90;70.90;;;;;;2337363;54;20947;-72
2022/12/10 05:06:59;;;;;;;16.85;8.75;;;5.90;71.60;;;;;;2583506;53;20907;-74
2022/12/10 05:09:25;;;;;;;17.48;9.30;;;5.90;70.90;;;;;;2337430;54;20903;-72
2022/12/10 05:11:52;;;;;;;18.90;9.27;;;5.90;70.90;;;;;;2578037;53;20955;-72
2022/12/10 05:14:18;;;;;;;20.17;10.20;;;5.90;70.90;;;;;;2344657;53;20928;-74
2022/12/10 05:16:45;;;;;;;18.80;9.50;;;5.90;70.80;;;;;;2337019;54;21018;-74
2022/12/10 05:19:11;;;;;;;18.77;10.40;;;5.90;70.80;;;;;;2338250;54;20923;-73
2022/12/10 05:24:23;;;;;;;15.43;8.15;;;5.90;70.70;;;;;;2337517;54;20979;-74
2022/12/10 05:26:51;;;;;;;15.32;7.93;;;5.90;70.70;;;;;;2482645;53;21102;-73
2022/12/10 05:29:17;;;;;;;15.65;8.35;;;5.90;70.70;;;;;;2337870;54;20955;-73
2022/12/10 05:31:48;;;;;;;17.37;8.38;;;5.90;70.70;;;;;;2338251;54;20907;-74
2022/12/10 05:34:14;;;;;;;15.75;8.65;;;5.90;70.60;;;;;;2337829;54;21191;-73
2022/12/10 05:36:40;;;;;;;18.95;9.50;;;5.90;70.70;;;;;;2471691;53;21501;-73
2022/12/10 05:39:08;;;;;;;15.73;8.82;;;5.90;70.60;;;;;;2340776;53;20939;-74
2022/12/10 05:41:53;;;;;;;15.70;8.38;;;5.90;70.60;;;;;;2461062;53;21042;-72
2022/12/10 05:44:20;;;;;;;15.23;8.32;;;5.90;70.30;;;;;;2363460;53;21023;-72
2022/12/10 05:46:47;;;;;;;16.95;9.30;;;5.90;70.50;;;;;;2382391;53;20963;-73
2022/12/10 05:49:13;;;;;;;18.58;9.07;;;5.90;70.50;;;;;;2322491;55;20958;-73
2022/12/10 05:51:41;;;;;;;16.35;8.60;;;5.90;70.50;;;;;;2421801;53;20888;-74
2022/12/10 05:54:09;;;;;;;17.12;8.50;;;5.90;70.60;;;;;;2340450;53;20920;-72
2022/12/10 05:56:36;;;;;;;15.50;8.40;;;5.90;70.60;;;;;;2582938;53;21113;-75
2022/12/10 05:59:03;;;;;;;15.00;8.13;;;5.90;70.60;;;;;;2338717;54;20919;-74
2022/12/10 06:01:34;;;;;;;16.33;8.55;;;5.90;70.60;;;;;;2365698;53;21020;-73
2022/12/10 06:04:01;;;;;;;17.25;8.52;;;5.90;70.60;;;;;;2579569;52;21028;-74
2022/12/10 06:06:33;;;;;;;15.40;8.10;;;5.90;70.50;;;;;;2472106;53;20915;-74
2022/12/10 06:09:00;;;;;;;15.48;7.37;;;5.90;70.50;;;;;;2337647;54;20952;-73
2022/12/10 06:11:58;;;;;;;14.68;7.72;;;5.80;70.50;;;;;;2426454;52;21559;-75
2022/12/10 06:14:39;;;;;;;15.27;7.97;;;5.80;70.20;;;;;;2341694;53;20938;-74
2022/12/10 06:17:05;;;;;;;18.48;9.40;;;5.80;70.20;;;;;;2583039;53;20927;-72
2022/12/10 06:19:31;;;;;;;19.25;9.50;;;5.80;70.40;;;;;;2337080;54;21387;-72
2022/12/10 06:21:58;;;;;;;18.42;9.27;;;5.80;70.40;;;;;;2370929;53;21078;-74
2022/12/10 06:24:37;;;;;;;16.87;8.68;;;5.80;70.40;;;;;;2337533;54;22090;-73
2022/12/10 06:27:05;;;;;;;18.52;9.75;;;5.80;70.20;;;;;;2583506;53;21864;-74
2022/12/10 06:29:49;;;;;;;17.33;9.63;;;5.70;70.20;;;;;;2337997;54;20911;-71
2022/12/10 06:32:15;;;;;;;17.05;8.65;;;5.70;70.00;;;;;;2490746;53;20971;-73
2022/12/10 06:34:41;;;;;;;17.62;8.75;;;5.70;70.30;;;;;;2336627;54;20939;-71
2022/12/10 06:37:08;;;;;;;17.40;8.95;;;5.70;70.40;;;;;;2354026;53;20968;-73
2022/12/10 06:39:36;;;;;;;17.52;8.82;;;5.70;70.50;;;;;;2339792;53;20960;-73
2022/12/10 06:42:03;;;;;;;18.40;9.40;;;5.70;70.50;;;;;;2337497;54;21019;-75
2022/12/10 06:44:29;;;;;;;16.77;8.65;;;5.70;70.50;;;;;;2459812;53;20907;-74
2022/12/10 06:47:23;;;;;;;19.77;9.57;;;5.70;70.60;;;;;;2582762;53;21432;-72
2022/12/10 06:49:52;;;;;;;18.12;8.98;;;5.70;70.40;;;;;;2338109;54;21039;-73
2022/12/10 06:52:19;;;;;;;14.87;7.70;;;5.70;70.50;;;;;;2446948;53;20999;-74
2022/12/10 06:54:45;;;;;;;13.68;7.75;;;5.70;70.50;;;;;;2583453;53;20960;-73
2022/12/10 06:57:11;;;;;;;15.05;7.90;;;5.70;70.50;;;;;;2406071;53;20988;-74
2022/12/10 06:59:38;;;;;;;17.40;8.75;;;5.70;70.50;;;;;;2338165;54;21046;-73
2022/12/10 07:02:04;;;;;;;17.85;8.88;;;5.70;70.60;;;;;;2582564;53;20987;-72
2022/12/10 07:04:32;;;;;;;18.30;9.45;;;5.70;70.60;;;;;;2337533;54;20888;-74
2022/12/10 07:07:31;;;;;;;18.40;8.93;;;5.70;70.60;;;;;;2337148;54;21014;-73
2022/12/10 07:09:58;;;;;;;15.57;8.07;;;5.70;70.50;;;;;;2338691;54;21844;-75
2022/12/10 07:12:24;;;;;;;17.08;8.82;;;5.70;70.70;;;;;;2336891;54;20999;-73
2022/12/10 07:14:50;;;;;;;19.02;9.07;;;5.70;70.70;;;;;;2337740;54;21023;-73
2022/12/10 07:17:17;;;;;;;17.80;8.18;;;5.70;70.80;;;;;;2337521;54;21502;-74
2022/12/10 07:19:49;;;;;;;19.15;9.70;;;5.70;70.80;;;;;;2337252;54;20955;-72
2022/12/10 07:22:16;;;;;;;21.45;10.80;;;5.70;70.70;;;;;;2337169;54;20919;-72
2022/12/10 07:24:42;;;;;;;20.90;10.52;;;5.70;70.70;;;;;;2337940;54;21491;-73
2022/12/10 07:27:09;;;;;;;20.15;10.02;;;5.70;70.60;;;;;;2544333;53;21013;-74
2022/12/10 07:29:35;;;;;;;22.98;11.32;;;5.70;70.60;;;;;;2413656;53;20983;-72
2022/12/10 07:32:02;;;;;;;20.62;10.07;;;5.60;70.50;;;;;;2571127;53;21480;-73
2022/12/10 07:34:28;;;;;;;20.20;10.25;;;5.70;70.60;;;;;;2337705;54;20907;-73
2022/12/10 07:36:55;;;;;;;24.35;12.07;;;5.70;70.60;;;;;;2336857;54;20951;-73
2022/12/10 07:39:21;;;;;;;21.45;11.27;;;5.70;70.60;;;;;;2337659;54;20951;-72
2022/12/10 07:41:52;;;;;;;22.30;11.43;;;5.70;70.50;;;;;;2341819;54;21473;-72
2022/12/10 07:44:20;;;;;;;22.40;11.68;;;5.60;70.30;;;;;;2343569;53;20983;-72
2022/12/10 07:46:50;;;;;;;26.23;12.15;;;5.60;70.40;;;;;;2337455;54;20993;-72
2022/12/10 07:49:17;;;;;;;23.65;11.43;;;5.60;70.40;;;;;;2341990;53;21427;-74
2022/12/10 07:51:47;;;;;;;25.33;11.85;;;5.60;70.50;;;;;;2581668;53;20939;-74
2022/12/10 07:54:47;;;;;;;24.48;11.57;;;5.60;70.40;;;;;;2448878;53;21472;-74
2022/12/10 07:57:15;;;;;;;26.50;12.13;;;5.60;70.20;;;;;;2336497;54;21776;-72
2022/12/10 07:59:41;;;;;;;25.67;12.27;;;5.60;70.30;;;;;;2342581;53;20960;-74
2022/12/10 08:02:09;;;;;;;26.02;12.73;;;5.60;70.30;;;;;;2338569;53;20975;-74
2022/12/10 08:04:37;;;;;;;24.25;11.82;;;5.50;70.30;;;;;;2341598;54;21009;-72
2022/12/10 08:07:04;;;;;;;24.12;12.13;;;5.50;70.40;;;;;;2343068;53;20988;-74
2022/12/10 08:09:30;;;;;;;31.02;13.27;;;5.50;70.40;;;;;;2336893;53;20975;-75
2022/12/10 08:11:57;;;;;;;26.30;12.35;;;5.50;70.40;;;;;;2581924;53;21215;-74
2022/12/10 08:14:23;;;;;;;28.70;13.10;;;5.50;70.50;;;;;;2336565;54;21207;-74
2022/12/10 08:16:52;;;;;;;25.33;12.73;;;5.50;70.50;;;;;;2360009;53;20945;-75
2022/12/10 08:22:40;;;;;;;26.05;11.90;;;5.50;70.60;;;;;;2337258;54;21014;-73
2022/12/10 08:25:06;;;;;;;25.48;12.35;;;5.50;70.50;;;;;;2336652;54;21010;-75
2022/12/10 08:27:33;;;;;;;24.83;11.12;;;5.50;70.60;;;;;;2337840;54;20986;-73
2022/12/10 08:29:59;;;;;;;26.05;13.13;;;5.50;70.60;;;;;;2477600;53;20911;-73
2022/12/10 08:32:27;;;;;;;22.67;11.25;;;5.50;70.70;;;;;;2337326;54;20954;-75
2022/12/10 08:34:54;;;;;;;30.00;13.80;;;5.50;70.70;;;;;;2336633;54;20963;-73
2022/12/10 08:37:20;;;;;;;28.27;12.88;;;5.50;70.70;;;;;;2337819;54;20978;-71
2022/12/10 08:39:48;;;;;;;31.15;14.35;;;5.50;70.70;;;;;;2337566;54;21404;-73
2022/12/10 08:42:15;;;;;;;30.80;15.05;;;5.40;70.50;;;;;;2341785;54;21927;-73
2022/12/10 08:44:41;;;;;;;28.05;13.85;;;5.50;70.50;;;;;;2586775;52;20974;-72
2022/12/10 08:47:08;;;;;;;25.88;13.20;;;5.40;70.30;;;;;;2338139;54;20942;-72
2022/12/10 08:49:41;;;;;;;23.60;12.43;;;5.40;70.30;;;;;;2336453;54;20915;-72
2022/12/10 08:52:07;;;;;;;27.15;12.77;;;5.40;70.20;;;;;;2515945;53;20920;-74
2022/12/10 08:54:34;;;;;;;28.95;13.88;;;5.40;70.30;;;;;;2338284;54;20979;-73
2022/12/10 08:57:01;;;;;;;30.15;13.35;;;5.40;70.40;;;;;;2337922;54;20883;-72
2022/12/10 08:59:28;;;;;;;27.10;13.07;;;5.40;70.40;;;;;;2338266;54;20931;-73
2022/12/10 09:01:54;;;;;;;25.48;12.55;;;5.40;70.50;;;;;;2337999;54;20959;-74
2022/12/10 09:04:22;;;;;;;28.33;12.02;;;5.40;70.50;;;;;;2337692;54;20979;-72
2022/12/10 09:06:48;;;;;;;25.30;12.37;;;5.40;70.60;;;;;;2337726;54;20968;-72
2022/12/10 09:09:15;;;;;;;24.92;11.88;;;5.40;70.70;;;;;;2337615;54;20927;-74
2022/12/10 09:11:41;;;;;;;26.20;11.60;;;5.40;70.70;;;;;;2582036;53;20982;-73
2022/12/10 09:14:09;;;;;;;25.98;12.45;;;5.40;70.70;;;;;;2344398;53;20974;-74
2022/12/10 09:16:36;;;;;;;27.05;13.27;;;5.40;70.80;;;;;;2336849;54;21078;-73
2022/12/10 09:19:03;;;;;;;25.98;12.60;;;5.40;70.70;;;;;;2336416;54;20943;-74
2022/12/10 09:21:35;;;;;;;24.50;11.32;;;5.40;70.60;;;;;;2436634;53;21034;-73
2022/12/10 09:24:01;;;;;;;26.02;12.37;;;5.40;70.50;;;;;;2342766;53;20987;-73
2022/12/10 09:26:31;;;;;;;27.80;12.48;;;5.40;70.50;;;;;;2544254;52;20911;-72
2022/12/10 09:28:57;;;;;;;23.48;11.48;;;5.40;70.40;;;;;;2582852;53;21449;-75
2022/12/10 09:31:24;;;;;;;25.27;12.10;;;5.40;70.50;;;;;;2337775;54;20939;-74
2022/12/10 09:33:53;;;;;;;23.60;12.15;;;5.30;70.40;;;;;;2587374;52;20904;-74
2022/12/10 09:36:22;;;;;;;23.73;11.90;;;5.40;70.50;;;;;;2546745;53;20935;-73
2022/12/10 09:38:49;;;;;;;23.80;12.07;;;5.40;70.50;;;;;;2344248;53;21000;-73
2022/12/10 09:41:33;;;;;;;22.52;11.20;;;5.40;70.50;;;;;;2352283;53;21561;-72
2022/12/10 09:44:14;;;;;;;25.45;12.30;;;5.40;70.50;;;;;;2336971;54;20999;-73
2022/12/10 09:47:14;;;;;;;23.38;11.82;;;5.40;70.50;;;;;;2337094;54;20957;-75
2022/12/10 09:51:16;;;;;;;23.75;11.50;;;5.40;70.20;;;;;;2337670;54;21321;-73
2022/12/10 09:53:43;;;;;;;25.00;10.50;;;5.40;69.90;;;;;;2469236;53;20974;-75
2022/12/10 09:56:55;;;;;;;24.80;11.52;;;5.40;70.50;;;;;;2337696;54;20959;-72
2022/12/10 09:59:56;;;;;;;23.95;10.32;;;5.40;70.20;;;;;;2583306;53;20966;-73
2022/12/10 10:02:30;;;;;;;21.95;9.85;;;5.40;70.60;;;;;;2350750;53;21058;-72
2022/12/10 10:05:25;;;;;;;22.55;10.18;;;5.40;70.60;;;;;;2582608;53;20943;-73
2022/12/10 10:07:56;;;;;;;18.80;9.07;;;5.40;70.30;;;;;;2496753;53;21903;-73
2022/12/10 10:10:26;;;;;;;20.57;10.10;;;5.40;70.60;;;;;;2338276;54;21011;-74
2022/12/10 10:12:56;;;;;;;18.92;9.95;;;5.40;70.50;;;;;;2342847;53;20996;-74
2022/12/10 10:15:27;;;;;;;20.77;9.88;;;5.40;70.50;;;;;;2338042;53;21223;-74
2022/12/10 10:17:56;;;;;;;20.23;9.55;;;5.40;70.50;;;;;;2395952;53;20931;-74
2022/12/10 10:20:23;;;;;;;22.62;10.48;;;5.40;70.50;;;;;;2338217;54;21002;-74
2022/12/10 10:22:50;;;;;;;22.77;10.88;;;5.40;70.50;;;;;;2337534;54;20975;-74
2022/12/10 10:25:17;;;;;;;21.62;10.85;;;5.40;70.50;;;;;;2404712;53;20979;-74
2022/12/10 10:27:44;;;;;;;24.45;10.80;;;5.40;70.50;;;;;;2337536;54;21663;-73
2022/12/10 10:30:18;;;;;;;21.87;10.13;;;5.40;70.50;;;;;;2344241;53;20977;-73
2022/12/10 10:33:28;;;;;;;20.10;9.75;;;5.40;70.50;;;;;;2583683;52;20887;-73
2022/12/10 10:35:57;;;;;;;22.42;10.93;;;5.40;70.10;;;;;;2336480;54;21042;-75
2022/12/10 10:38:31;;;;;;;23.08;10.48;;;5.40;70.50;;;;;;2336901;54;20923;-74
2022/12/10 10:40:59;;;;;;;23.17;10.88;;;5.40;70.50;;;;;;2320852;55;21007;-73
2022/12/10 10:43:27;;;;;;;24.90;11.07;;;5.40;70.50;;;;;;2336520;54;21048;-75
2022/12/10 10:46:22;;;;;;;22.87;11.12;;;5.40;70.40;;;;;;2336217;54;20905;-74
2022/12/10 10:48:49;;;;;;;23.17;11.23;;;5.40;70.10;;;;;;2337727;54;21357;-73
2022/12/10 10:51:27;;;;;;;19.62;9.65;;;5.40;70.40;;;;;;2337180;54;21539;-74
2022/12/10 10:53:54;;;;;;;23.62;10.43;;;5.40;70.20;;;;;;2337658;54;20974;-75
2022/12/10 10:56:25;;;;;;;21.02;9.95;;;5.40;70.30;;;;;;2552868;53;21007;-75
2022/12/10 10:59:52;;;;;;;21.12;10.50;;;5.40;70.30;;;;;;2337319;54;21823;-73
2022/12/10 11:02:30;;;;;;;21.55;9.43;;;5.40;69.90;;;;;;2338394;54;20932;-73
2022/12/10 11:04:59;;;;;;;22.48;9.90;;;5.40;70.30;;;;;;2338044;54;20987;-74
2022/12/10 11:07:39;;;;;;;20.10;9.43;;;5.40;70.40;;;;;;2583109;53;20990;-72
2022/12/10 11:10:20;;;;;;;23.85;10.50;;;5.40;70.40;;;;;;2342065;53;21012;-74
2022/12/10 11:13:00;;;;;;;17.52;9.07;;;5.40;70.30;;;;;;2585051;52;20987;-73
2022/12/10 11:15:37;;;;;;;20.77;9.07;;;5.40;70.30;;;;;;2337246;54;20939;-73
2022/12/10 11:18:19;;;;;;;18.95;9.07;;;5.40;70.30;;;;;;2322746;55;20968;-75
2022/12/10 11:21:18;;;;;;;21.65;10.32;;;5.40;70.40;;;;;;2410056;53;21058;-74
2022/12/10 11:23:46;;;;;;;18.27;9.18;;;5.40;70.30;;;;;;2337920;54;20939;-72
2022/12/10 11:26:57;;;;;;;21.42;9.23;;;5.40;70.40;;;;;;2337575;54;21558;-74
2022/12/10 11:30:01;;;;;;;18.48;9.27;;;5.40;70.10;;;;;;2336864;54;21851;-75
2022/12/10 11:33:09;;;;;;;24.77;9.80;;;5.40;70.10;;;;;;2337859;54;20934;-73
2022/12/10 11:37:15;;;;;;;19.90;9.48;;;5.40;70.10;;;;;;2485200;53;20935;-74
2022/12/10 11:49:51;;;;;;;17.52;8.63;;;5.40;69.70;;;;;;2325049;53;1350717;-75
2022/12/10 11:53:28;;;;;;;16.85;7.55;;;5.40;69.60;;;;;;2508317;53;21416;-75
2022/12/10 11:56:14;;;;;;;16.98;7.87;;;5.30;69.70;;;;;;2336746;54;21039;-74
2022/12/10 11:59:51;;;;;;;22.45;9.55;;;5.30;70.00;;;;;;2521435;53;20919;-75
2022/12/10 12:03:03;;;;;;;25.30;12.32;;;5.30;69.70;;;;;;2337826;54;21283;-75
2022/12/10 12:09:31;;;;;;;20.77;9.77;;;5.30;70.10;;;;;;2498165;53;20970;-74
2022/12/10 12:15:35;;;;;;;18.95;8.50;;;5.30;69.80;;;;;;2341578;54;21005;-74
2022/12/10 12:19:03;;;;;;;17.10;7.10;;;5.30;69.70;;;;;;2342647;53;20929;-74
2022/12/10 12:21:29;;;;;;;18.58;8.63;;;5.20;69.80;;;;;;2337975;53;21496;-76
2022/12/10 12:24:21;;;;;;;16.58;7.80;;;5.20;70.10;;;;;;2336440;54;20974;-74
2022/12/10 12:27:00;;;;;;;22.10;9.93;;;5.20;70.10;;;;;;2336559;54;21488;-75
2022/12/10 12:29:57;;;;;;;19.87;9.77;;;5.20;70.20;;;;;;2343226;53;21476;-75
2022/12/10 12:35:52;;;;;;;20.05;9.98;;;5.20;70.30;;;;;;2410915;53;21054;-76
2022/12/10 12:40:57;;;;;;;20.25;8.93;;;5.20;70.20;;;;;;2478397;53;20982;-75
2022/12/10 12:44:16;;;;;;;15.65;7.00;;;5.20;69.90;;;;;;2337099;54;21387;-74
2022/12/10 12:46:46;;;;;;;17.35;7.95;;;5.20;70.20;;;;;;2370807;53;20907;-77
2022/12/10 12:49:31;;;;;;;18.95;9.10;;;5.20;70.40;;;;;;2336626;54;20958;-74
2022/12/10 12:52:32;;;;;;;20.75;9.32;;;5.20;70.30;;;;;;2448178;53;21335;-75
2022/12/10 12:55:00;;;;;;;17.90;8.65;;;5.20;70.30;;;;;;2337731;54;20954;-74
2022/12/10 12:57:52;;;;;;;17.98;9.57;;;5.20;70.50;;;;;;2341111;53;20983;-76
2022/12/10 13:00:21;;;;;;;16.77;8.52;;;5.20;70.50;;;;;;2342062;53;20925;-76
2022/12/10 13:03:05;;;;;;;19.62;10.02;;;5.20;70.60;;;;;;2337684;54;20947;-74
2022/12/10 13:05:39;;;;;;;15.90;8.43;;;5.20;70.50;;;;;;2336754;54;20985;-75
2022/12/10 13:08:22;;;;;;;17.50;8.98;;;5.30;70.60;;;;;;2336968;54;21743;-75
2022/12/10 13:13:51;;;;;;;16.33;8.35;;;5.30;70.60;;;;;;2361237;53;20907;-73
2022/12/10 13:16:47;;;;;;;17.17;8.23;;;5.30;70.70;;;;;;2470331;53;20987;-76
2022/12/10 13:19:49;;;;;;;16.87;8.43;;;5.30;70.40;;;;;;2336937;54;20927;-76
2022/12/10 13:22:40;;;;;;;15.60;7.60;;;5.30;70.20;;;;;;2336957;54;21074;-75
2022/12/10 13:25:15;;;;;;;16.77;8.40;;;5.30;70.30;;;;;;2438510;53;20915;-74
2022/12/10 13:27:42;;;;;;;17.73;8.63;;;5.30;70.40;;;;;;2582668;53;20944;-74
2022/12/10 13:30:27;;;;;;;15.13;7.40;;;5.30;70.50;;;;;;2336772;54;20930;-75
2022/12/10 13:33:04;;;;;;;16.85;8.23;;;5.30;70.30;;;;;;2353978;53;21344;-74
2022/12/10 13:35:43;;;;;;;14.15;7.05;;;5.30;70.50;;;;;;2340278;54;20943;-74
2022/12/10 13:38:22;;;;;;;14.73;6.87;;;5.30;70.40;;;;;;2340843;54;20931;-75
2022/12/10 13:48:38;;;;;;;17.60;9.47;;;5.30;70.50;;;;;;2342303;53;21037;-75
2022/12/10 13:51:37;;;;;;;16.52;8.50;;;5.30;70.20;;;;;;2337455;54;21909;-74
2022/12/10 13:57:16;;;;;;;15.77;8.25;;;5.30;70.00;;;;;;2580454;53;20919;-76
2022/12/10 14:00:13;;;;;;;13.60;6.47;;;5.30;70.10;;;;;;2334044;54;20943;-75
2022/12/10 14:03:04;;;;;;;14.23;7.45;;;5.30;70.00;;;;;;2338288;54;21026;-75
2022/12/10 14:06:40;;;;;;;17.10;8.73;;;5.20;70.10;;;;;;2361752;53;20957;-76
2022/12/10 14:09:12;;;;;;;25.58;10.82;;;5.20;69.90;;;;;;2518107;53;20911;-74
2022/12/10 14:11:43;;;;;;;26.77;12.70;;;5.20;70.30;;;;;;2346247;53;21787;-75
2022/12/10 14:14:16;;;;;;;18.90;9.25;;;5.20;70.40;;;;;;2387858;53;20927;-75
2022/12/10 14:16:45;;;;;;;17.92;9.18;;;5.20;70.40;;;;;;2340762;53;20992;-75
2022/12/10 14:19:15;;;;;;;18.65;8.77;;;5.20;70.40;;;;;;2339515;53;20968;-74
2022/12/10 14:22:04;;;;;;;16.73;8.93;;;5.20;70.40;;;;;;2335784;54;20911;-76